Time;durP1;ratioP1;P1;durP2;ratioP2;P2;SDS_P1;SDS_P2;PMS_P1;PMS_P2;Temp;Humidity;BMP_temperature;BMP_pressure;BME280_temperature;BME280_humidity;BME280_pressure;Samples;Min_cycle;Max_cycle;Signal;HPM_P1;HPM_P2
2021/10/22 00:00:17;;;;;;;5.25;2.00;;;18.20;76.10;;;;;;5051050;28;20025;-80
2021/10/22 00:02:43;;;;;;;6.35;2.30;;;18.10;76.70;;;;;;5050449;28;20488;-80
2021/10/22 00:05:09;;;;;;;4.82;2.17;;;18.20;76.00;;;;;;5050689;28;20544;-81
2021/10/22 00:07:35;;;;;;;8.45;2.33;;;18.10;75.80;;;;;;5050391;28;20033;-80
2021/10/22 00:10:02;;;;;;;5.35;1.92;;;18.10;75.90;;;;;;5050698;28;20057;-81
2021/10/22 00:12:27;;;;;;;7.10;2.45;;;18.10;75.80;;;;;;5048894;28;20613;-81
2021/10/22 00:14:53;;;;;;;7.05;2.40;;;18.10;75.80;;;;;;5050532;28;20108;-79
2021/10/22 00:17:19;;;;;;;6.47;1.90;;;18.10;75.70;;;;;;5049060;28;20041;-79
2021/10/22 00:19:44;;;;;;;6.15;2.28;;;18.10;75.60;;;;;;5050346;28;20392;-82
2021/10/22 00:22:10;;;;;;;5.57;2.25;;;18.00;75.60;;;;;;5049964;28;20036;-82
2021/10/22 00:24:36;;;;;;;5.55;1.85;;;18.00;75.60;;;;;;5050216;28;20425;-81
2021/10/22 00:27:02;;;;;;;5.63;2.17;;;18.00;75.60;;;;;;5050385;28;20029;-81
2021/10/22 00:29:27;;;;;;;5.30;2.25;;;18.00;75.50;;;;;;5050138;28;20017;-83
2021/10/22 00:31:53;;;;;;;6.00;2.03;;;18.00;75.50;;;;;;5050263;28;20111;-84
2021/10/22 00:34:19;;;;;;;4.13;1.73;;;18.00;75.40;;;;;;5050054;28;20021;-80
2021/10/22 00:36:44;;;;;;;7.95;1.92;;;17.90;75.40;;;;;;5050431;28;20086;-81
2021/10/22 00:39:10;;;;;;;4.60;2.20;;;17.90;75.30;;;;;;5050136;28;20033;-82
2021/10/22 00:41:38;;;;;;;4.28;1.80;;;17.90;75.30;;;;;;5049826;28;20022;-83
2021/10/22 00:44:04;;;;;;;5.75;1.80;;;17.90;75.20;;;;;;5050083;28;20031;-80
2021/10/22 00:46:31;;;;;;;6.53;2.10;;;17.90;75.20;;;;;;5049887;28;20060;-80
2021/10/22 00:48:57;;;;;;;4.32;1.50;;;17.90;75.10;;;;;;5049108;28;20078;-81
2021/10/22 00:51:24;;;;;;;6.18;1.70;;;17.90;75.10;;;;;;5049892;28;20104;-81
2021/10/22 00:53:50;;;;;;;4.93;1.60;;;17.80;74.90;;;;;;5050016;28;20468;-79
2021/10/22 00:56:16;;;;;;;5.20;2.17;;;17.80;75.80;;;;;;5050063;28;20032;-81
2021/10/22 00:58:42;;;;;;;5.57;1.80;;;17.80;74.80;;;;;;5049757;28;20033;-80
2021/10/22 01:01:09;;;;;;;3.65;1.70;;;17.80;74.90;;;;;;5048682;28;20389;-82
2021/10/22 01:03:34;;;;;;;5.70;2.10;;;17.80;74.80;;;;;;5048209;28;20025;-81
2021/10/22 01:06:01;;;;;;;3.65;1.60;;;17.80;74.70;;;;;;5049789;28;20025;-81
2021/10/22 01:08:31;;;;;;;5.55;1.85;;;17.80;74.70;;;;;;5049372;28;20032;-81
2021/10/22 01:10:59;;;;;;;3.50;1.65;;;17.70;74.70;;;;;;5049505;28;20101;-82
2021/10/22 01:13:25;;;;;;;6.20;1.80;;;17.70;74.60;;;;;;5049466;28;20033;-82
2021/10/22 01:15:51;;;;;;;4.05;1.48;;;17.70;74.30;;;;;;5049340;28;20469;-81
2021/10/22 01:18:17;;;;;;;5.45;1.58;;;17.70;74.30;;;;;;5049858;28;20064;-81
2021/10/22 01:20:43;;;;;;;7.32;1.90;;;17.70;74.40;;;;;;5049270;28;20565;-82
2021/10/22 01:23:09;;;;;;;4.75;1.70;;;17.60;74.20;;;;;;5049507;28;20037;-81
2021/10/22 01:25:35;;;;;;;4.32;1.60;;;17.60;74.10;;;;;;5049103;28;20070;-82
2021/10/22 01:28:02;;;;;;;3.95;1.48;;;17.60;74.10;;;;;;5049454;28;20025;-81
2021/10/22 01:30:29;;;;;;;4.72;1.58;;;17.70;74.20;;;;;;5049089;28;20026;-81
2021/10/22 01:33:00;;;;;;;4.30;1.63;;;17.60;74.10;;;;;;5049346;28;20033;-82
2021/10/22 01:35:27;;;;;;;4.43;2.03;;;17.60;74.20;;;;;;5049249;28;20035;-82
2021/10/22 01:37:53;;;;;;;5.70;1.58;;;17.60;74.10;;;;;;5049106;28;20400;-82
2021/10/22 01:40:18;;;;;;;3.15;1.50;;;17.60;74.10;;;;;;5049305;28;20031;-80
2021/10/22 01:42:44;;;;;;;5.65;1.75;;;17.60;74.00;;;;;;5049439;28;20500;-81
2021/10/22 01:45:11;;;;;;;4.00;1.55;;;17.60;74.00;;;;;;5047650;28;20108;-79
2021/10/22 01:47:37;;;;;;;4.38;1.40;;;17.60;73.90;;;;;;5048661;28;20468;-79
2021/10/22 01:50:03;;;;;;;5.20;1.48;;;17.60;73.80;;;;;;5047725;28;20029;-80
2021/10/22 01:52:29;;;;;;;4.55;1.80;;;17.60;73.70;;;;;;5048742;28;20025;-79
2021/10/22 01:54:55;;;;;;;4.65;1.50;;;17.60;73.70;;;;;;5047659;28;20036;-80
2021/10/22 01:57:20;;;;;;;6.30;1.77;;;17.60;73.70;;;;;;5048597;28;20540;-80
2021/10/22 01:59:47;;;;;;;4.22;1.65;;;17.60;74.30;;;;;;5047947;28;20052;-81
2021/10/22 02:02:13;;;;;;;4.10;1.42;;;17.60;74.30;;;;;;5048917;28;20154;-80
2021/10/22 02:04:39;;;;;;;3.38;1.40;;;17.60;73.40;;;;;;5048699;28;20107;-81
2021/10/22 02:07:05;;;;;;;5.20;1.85;;;17.60;73.40;;;;;;5048769;28;20417;-81
2021/10/22 02:09:30;;;;;;;4.95;1.60;;;17.70;73.30;;;;;;5048593;28;20025;-83
2021/10/22 02:11:56;;;;;;;3.30;1.50;;;17.70;73.20;;;;;;5048758;28;20480;-81
2021/10/22 02:14:22;;;;;;;4.47;1.40;;;17.60;73.10;;;;;;5048387;28;20029;-81
2021/10/22 02:16:48;;;;;;;4.65;1.50;;;17.70;73.20;;;;;;5048894;28;20025;-82
2021/10/22 02:19:14;;;;;;;4.20;1.63;;;17.60;73.10;;;;;;5048988;28;20094;-81
2021/10/22 02:21:40;;;;;;;4.97;1.42;;;17.70;73.00;;;;;;5048290;28;20025;-81
2021/10/22 02:24:06;;;;;;;4.53;1.85;;;17.70;72.90;;;;;;5048502;28;20043;-80
2021/10/22 02:26:32;;;;;;;4.75;1.65;;;17.70;72.90;;;;;;5048253;28;20017;-79
2021/10/22 02:28:58;;;;;;;5.10;1.40;;;17.70;72.80;;;;;;5048600;28;20029;-79
2021/10/22 02:31:24;;;;;;;3.65;1.27;;;17.70;72.70;;;;;;5048356;28;20024;-79
2021/10/22 02:33:50;;;;;;;4.85;1.42;;;17.70;72.80;;;;;;5048399;28;20040;-81
2021/10/22 02:36:16;;;;;;;5.10;1.63;;;17.70;72.60;;;;;;5048475;28;20096;-81
2021/10/22 02:38:41;;;;;;;5.72;1.50;;;17.70;72.50;;;;;;5048104;28;20488;-82
2021/10/22 02:41:08;;;;;;;4.68;1.63;;;17.70;72.50;;;;;;5048294;28;20021;-80
2021/10/22 02:43:34;;;;;;;2.95;1.17;;;17.70;72.30;;;;;;5047545;28;20025;-80
2021/10/22 02:46:00;;;;;;;5.53;1.58;;;17.70;72.30;;;;;;5048092;28;20033;-80
2021/10/22 02:48:25;;;;;;;4.38;1.70;;;17.70;72.20;;;;;;5046627;28;20052;-80
2021/10/22 02:50:51;;;;;;;3.25;1.38;;;17.70;72.10;;;;;;5048083;28;20481;-81
2021/10/22 02:53:17;;;;;;;4.47;1.30;;;17.70;71.90;;;;;;5048505;28;20033;-80
2021/10/22 02:55:43;;;;;;;4.50;1.92;;;17.70;71.80;;;;;;5047944;28;20124;-80
2021/10/22 02:58:09;;;;;;;4.05;1.48;;;17.70;71.80;;;;;;5048018;28;20401;-81
2021/10/22 03:00:36;;;;;;;4.00;1.40;;;17.70;72.40;;;;;;5047770;28;20014;-80
2021/10/22 03:03:02;;;;;;;5.88;1.30;;;17.70;71.60;;;;;;5048043;28;20076;-81
2021/10/22 03:05:30;;;;;;;3.55;1.23;;;17.80;71.70;;;;;;5047828;28;20064;-80
2021/10/22 03:07:56;;;;;;;3.60;1.20;;;17.80;71.60;;;;;;5046608;28;20078;-81
2021/10/22 03:10:22;;;;;;;4.28;1.20;;;17.70;71.50;;;;;;5047783;28;20025;-81
2021/10/22 03:12:47;;;;;;;3.75;1.40;;;17.80;71.50;;;;;;5048080;28;20032;-81
2021/10/22 03:15:13;;;;;;;3.60;1.20;;;17.80;71.40;;;;;;5047863;28;20021;-80
2021/10/22 03:17:39;;;;;;;3.53;1.58;;;17.80;71.40;;;;;;5047559;28;20115;-81
2021/10/22 03:20:05;;;;;;;3.53;1.23;;;17.80;71.30;;;;;;5047813;28;20029;-80
2021/10/22 03:22:31;;;;;;;3.95;1.77;;;17.80;71.20;;;;;;5047523;28;20108;-81
2021/10/22 03:24:57;;;;;;;3.22;1.40;;;17.80;71.10;;;;;;5047930;28;20100;-80
2021/10/22 03:27:23;;;;;;;4.03;1.50;;;17.80;71.10;;;;;;5047576;28;20488;-81
2021/10/22 03:29:49;;;;;;;3.83;1.38;;;17.80;71.00;;;;;;5047930;28;20013;-80
2021/10/22 03:32:15;;;;;;;4.22;1.45;;;17.80;71.00;;;;;;5048074;28;20028;-80
2021/10/22 03:34:42;;;;;;;3.30;1.05;;;17.80;70.90;;;;;;5047434;28;20490;-81
2021/10/22 03:37:07;;;;;;;3.38;1.20;;;17.80;70.80;;;;;;5047532;28;20029;-82
2021/10/22 03:39:33;;;;;;;4.00;1.13;;;17.80;70.80;;;;;;5047333;28;20044;-81
2021/10/22 03:41:59;;;;;;;3.38;1.25;;;17.80;70.70;;;;;;5047652;28;20029;-81
2021/10/22 03:44:25;;;;;;;5.93;1.65;;;17.80;71.30;;;;;;5045917;28;20044;-81
2021/10/22 03:46:51;;;;;;;3.08;1.42;;;17.80;70.60;;;;;;5047369;28;20044;-81
2021/10/22 03:49:17;;;;;;;4.10;1.30;;;17.80;70.60;;;;;;5047732;28;20025;-82
2021/10/22 03:51:43;;;;;;;3.95;1.02;;;17.90;70.50;;;;;;5047090;28;20408;-80
2021/10/22 03:54:08;;;;;;;3.17;1.30;;;17.90;70.50;;;;;;5046152;28;20075;-81
2021/10/22 03:56:34;;;;;;;2.13;0.73;;;17.90;70.50;;;;;;5049184;28;20033;-82
2021/10/22 03:59:00;;;;;;;3.60;1.08;;;17.90;70.30;;;;;;5050768;28;20508;-80
2021/10/22 04:01:25;;;;;;;2.60;1.15;;;17.80;70.30;;;;;;5050544;28;20054;-82
2021/10/22 04:03:51;;;;;;;4.15;1.42;;;17.80;70.20;;;;;;5050721;28;20029;-80
2021/10/22 04:06:17;;;;;;;2.78;0.98;;;17.90;70.10;;;;;;5051049;28;20029;-81
2021/10/22 04:08:42;;;;;;;3.92;1.13;;;17.80;70.10;;;;;;5050518;28;20531;-80
2021/10/22 04:11:08;;;;;;;3.83;1.05;;;17.90;70.10;;;;;;5050628;28;20021;-80
2021/10/22 04:13:34;;;;;;;3.80;1.13;;;17.90;70.10;;;;;;5050307;28;20144;-80
2021/10/22 04:15:59;;;;;;;4.72;1.42;;;17.90;70.00;;;;;;5050561;28;20029;-80
2021/10/22 04:18:26;;;;;;;3.72;1.48;;;17.90;70.60;;;;;;5050093;28;20090;-80
2021/10/22 04:20:53;;;;;;;4.18;1.38;;;17.90;69.80;;;;;;5050417;28;20370;-80
2021/10/22 04:23:18;;;;;;;4.78;1.38;;;17.90;69.80;;;;;;5050549;28;20116;-80
2021/10/22 04:25:44;;;;;;;3.33;0.93;;;17.90;70.10;;;;;;5050746;28;20472;-81
2021/10/22 04:28:10;;;;;;;4.00;1.58;;;17.90;69.80;;;;;;5050259;28;20029;-81
2021/10/22 04:30:36;;;;;;;3.60;1.05;;;17.90;69.70;;;;;;5048757;28;20119;-83
2021/10/22 04:33:03;;;;;;;2.97;1.00;;;17.90;69.50;;;;;;5050248;28;20021;-82
2021/10/22 04:35:31;;;;;;;2.30;0.77;;;17.90;69.50;;;;;;5050123;28;20029;-83
2021/10/22 04:40:31;;;;;;;3.75;1.15;;;17.90;69.30;;;;;;5049856;28;20024;-83
2021/10/22 04:42:58;;;;;;;2.58;1.10;;;17.90;69.20;;;;;;5048795;28;20029;-83
2021/10/22 04:45:24;;;;;;;3.83;1.20;;;17.90;69.10;;;;;;5049561;28;20033;-84
2021/10/22 04:47:49;;;;;;;2.85;1.15;;;18.00;69.10;;;;;;5048614;28;20035;-81
2021/10/22 04:50:15;;;;;;;2.30;1.00;;;18.00;69.20;;;;;;5050439;28;20057;-82
2021/10/22 04:52:41;;;;;;;2.60;1.05;;;18.00;69.10;;;;;;5049669;28;20404;-82
2021/10/22 04:55:08;;;;;;;3.47;1.05;;;18.00;68.90;;;;;;5049985;28;20032;-82
2021/10/22 04:57:34;;;;;;;3.80;1.00;;;18.00;68.80;;;;;;5049550;28;20412;-81
2021/10/22 05:00:00;;;;;;;3.80;0.98;;;18.00;68.80;;;;;;5049808;28;20461;-81
2021/10/22 05:02:26;;;;;;;3.95;1.33;;;18.10;68.70;;;;;;5048179;28;20040;-81
2021/10/22 05:04:51;;;;;;;2.97;0.85;;;18.10;68.70;;;;;;5049872;28;20021;-82
2021/10/22 05:07:17;;;;;;;2.85;0.93;;;18.10;68.70;;;;;;5049880;28;20384;-80
2021/10/22 05:09:43;;;;;;;2.40;0.90;;;18.10;68.70;;;;;;5049576;28;20021;-80
2021/10/22 05:12:08;;;;;;;4.00;1.00;;;18.20;68.60;;;;;;5049701;28;20033;-80
2021/10/22 05:14:35;;;;;;;4.15;1.15;;;18.20;68.60;;;;;;5049281;28;20061;-82
2021/10/22 05:17:01;;;;;;;3.15;0.88;;;18.20;68.60;;;;;;5049549;28;20411;-82
2021/10/22 05:19:27;;;;;;;2.45;0.80;;;18.30;68.60;;;;;;5049408;28;20025;-80
2021/10/22 05:21:53;;;;;;;4.35;1.33;;;18.30;68.50;;;;;;5049620;28;20408;-80
2021/10/22 05:24:19;;;;;;;2.55;0.88;;;18.30;68.30;;;;;;5049324;28;20013;-79
2021/10/22 05:26:44;;;;;;;4.07;0.90;;;18.30;68.20;;;;;;5049794;28;20036;-79
2021/10/22 05:32:16;;;;;;;2.90;0.95;;;18.40;68.10;;;;;;5049571;28;20500;-79
2021/10/22 05:34:41;;;;;;;3.50;0.90;;;18.50;68.10;;;;;;5049156;28;20031;-78
2021/10/22 05:37:07;;;;;;;2.78;1.08;;;18.60;68.20;;;;;;5049119;28;20037;-78
2021/10/22 05:42:18;;;;;;;2.40;0.95;;;18.60;68.20;;;;;;5049601;28;20041;-79
2021/10/22 05:44:44;;;;;;;2.50;0.68;;;18.70;68.10;;;;;;5049305;28;20496;-80
2021/10/22 05:47:12;;;;;;;2.78;0.85;;;18.70;68.10;;;;;;5049199;28;20061;-78
2021/10/22 05:49:37;;;;;;;3.08;0.85;;;18.70;68.10;;;;;;5048927;28;20070;-77
2021/10/22 05:52:03;;;;;;;2.83;0.80;;;18.70;68.20;;;;;;5048929;28;20025;-78
2021/10/22 05:54:29;;;;;;;2.30;0.85;;;18.80;68.20;;;;;;5047469;28;20496;-79
2021/10/22 05:57:14;;;;;;;3.58;1.20;;;18.70;68.20;;;;;;5048932;28;20047;-81
2021/10/22 06:00:01;;;;;;;2.22;0.80;;;18.70;68.10;;;;;;5048812;28;20052;-80
2021/10/22 06:02:27;;;;;;;3.78;0.80;;;18.80;68.10;;;;;;5048636;28;20481;-79
2021/10/22 06:04:52;;;;;;;3.67;1.02;;;18.90;68.90;;;;;;5048773;28;20024;-79
2021/10/22 06:07:38;;;;;;;4.47;0.90;;;18.90;69.30;;;;;;5049184;28;20032;-80
2021/10/22 06:10:04;;;;;;;;;;;18.90;69.30;;;;;;5049263;28;20540;-78
2021/10/22 06:12:30;;;;;;;3.13;0.80;;;18.90;69.40;;;;;;5048536;28;20056;-79
2021/10/22 06:18:02;;;;;;;5.30;0.88;;;18.90;69.50;;;;;;5047970;28;20043;-77
2021/10/22 06:20:32;;;;;;;2.28;0.80;;;19.00;69.50;;;;;;5048428;28;20025;-80
2021/10/22 06:25:42;;;;;;;3.50;1.00;;;19.00;69.40;;;;;;5048317;28;20498;-78
2021/10/22 06:30:59;;;;;;;3.20;1.15;;;19.00;69.40;;;;;;5049086;28;20029;-78
2021/10/22 06:33:25;;;;;;;21.45;19.25;;;19.00;69.20;;;;;;5050927;28;20096;-81
2021/10/22 06:35:53;;;;;;;21.52;18.45;;;19.00;71.00;;;;;;5048518;28;20063;-80
2021/10/22 06:38:19;;;;;;;8.23;6.30;;;19.00;71.60;;;;;;5048086;28;20044;-80
2021/10/22 06:40:45;;;;;;;7.50;6.22;;;19.00;71.70;;;;;;5047171;28;20356;-85
2021/10/22 06:43:11;;;;;;;11.25;5.50;;;19.00;71.70;;;;;;5048328;28;20029;-82
2021/10/22 06:45:36;;;;;;;6.53;4.95;;;19.00;71.90;;;;;;5047992;28;20377;-83
2021/10/22 06:48:04;;;;;;;8.38;4.40;;;19.00;71.60;;;;;;5048174;28;20053;-84
2021/10/22 06:50:30;;;;;;;6.45;4.25;;;19.00;71.80;;;;;;5048071;28;20022;-84
2021/10/22 06:52:56;;;;;;;8.77;4.47;;;18.90;71.50;;;;;;5048127;28;20025;-80
2021/10/22 06:55:21;;;;;;;10.65;4.57;;;18.90;71.00;;;;;;5047987;28;20103;-83
2021/10/22 06:57:47;;;;;;;7.78;3.90;;;18.90;71.70;;;;;;5067322;28;20068;-86
2021/10/22 07:00:12;;;;;;;5.20;3.45;;;18.90;71.00;;;;;;5075075;28;20021;-83
2021/10/22 07:02:47;;;;;;;9.70;3.90;;;18.80;70.90;;;;;;5047678;28;20369;-81
2021/10/22 07:05:25;;;;;;;8.30;3.80;;;18.80;70.60;;;;;;5047727;28;20021;-82
2021/10/22 07:07:51;;;;;;;6.18;3.53;;;18.80;70.60;;;;;;5048047;28;20025;-81
2021/10/22 07:10:17;;;;;;;9.52;4.00;;;18.80;70.40;;;;;;5048167;28;20461;-82
2021/10/22 07:12:43;;;;;;;6.82;3.67;;;18.70;70.20;;;;;;5047811;28;20100;-82
2021/10/22 07:17:59;;;;;;;6.28;3.33;;;18.70;70.10;;;;;;5047196;28;20441;-82
2021/10/22 07:23:12;;;;;;;5.35;2.60;;;18.70;70.00;;;;;;5047626;28;20464;-82
2021/10/22 07:25:59;;;;;;;5.00;3.00;;;18.60;69.80;;;;;;5047543;28;20060;-82
2021/10/22 07:28:25;;;;;;;4.72;2.55;;;18.60;69.80;;;;;;5047558;28;20050;-82
2021/10/22 07:33:41;;;;;;;4.35;2.88;;;18.50;69.60;;;;;;5050904;28;20040;-82
2021/10/22 07:36:09;;;;;;;5.70;2.25;;;18.50;69.60;;;;;;5049781;28;20373;-82
2021/10/22 07:38:36;;;;;;;4.32;2.55;;;18.50;69.40;;;;;;5050821;28;20076;-83
2021/10/22 07:41:02;;;;;;;4.28;2.40;;;18.50;69.30;;;;;;5051068;28;20021;-83
2021/10/22 07:46:34;;;;;;;4.38;2.03;;;18.40;69.20;;;;;;5050859;28;20048;-81
2021/10/22 07:48:59;;;;;;;7.25;2.40;;;18.40;69.00;;;;;;5049632;28;20025;-82
2021/10/22 07:51:25;;;;;;;7.50;2.55;;;18.40;69.10;;;;;;5050837;28;20511;-83
2021/10/22 07:53:51;;;;;;;7.13;2.55;;;18.30;68.90;;;;;;5050904;28;20392;-83
2021/10/22 07:56:17;;;;;;;10.60;2.45;;;18.30;69.00;;;;;;5049794;28;20025;-82
2021/10/22 07:58:44;;;;;;;6.47;1.98;;;18.30;69.00;;;;;;5050491;28;20033;-81
2021/10/22 08:01:10;;;;;;;4.50;1.90;;;18.30;68.90;;;;;;5050769;28;20365;-82
2021/10/22 08:03:36;;;;;;;3.00;1.60;;;18.20;68.90;;;;;;5050409;28;20029;-82
2021/10/22 08:08:48;;;;;;;4.82;2.08;;;18.20;68.90;;;;;;5050883;28;20407;-82
2021/10/22 08:11:18;;;;;;;3.50;2.08;;;18.20;68.80;;;;;;5050950;28;20104;-79
2021/10/22 08:14:07;;;;;;;5.32;1.80;;;18.10;68.70;;;;;;5050898;28;20104;-80
2021/10/22 08:16:52;;;;;;;6.72;1.38;;;18.20;68.80;;;;;;5050325;28;20025;-79
2021/10/22 08:19:18;;;;;;;3.90;1.67;;;18.10;68.70;;;;;;5050820;28;20025;-80
2021/10/22 08:24:30;;;;;;;4.50;1.73;;;18.10;68.80;;;;;;5050396;28;20048;-81
2021/10/22 08:26:55;;;;;;;3.22;1.60;;;18.10;68.70;;;;;;5050403;28;20025;-81
2021/10/22 08:29:22;;;;;;;2.80;1.40;;;18.00;69.40;;;;;;5049989;28;20029;-81
2021/10/22 08:31:48;;;;;;;3.80;1.27;;;18.00;68.60;;;;;;5050673;28;20013;-81
2021/10/22 08:34:14;;;;;;;4.90;1.63;;;18.00;68.60;;;;;;5050552;28;20108;-81
2021/10/22 08:37:00;;;;;;;5.75;1.48;;;18.00;68.60;;;;;;5049900;28;20493;-81
2021/10/22 08:42:13;;;;;;;4.07;1.40;;;18.00;68.60;;;;;;5049765;28;20036;-81
2021/10/22 08:47:31;;;;;;;3.20;1.50;;;18.00;68.60;;;;;;5050179;28;20041;-82
2021/10/22 08:50:08;;;;;;;3.58;1.73;;;17.90;68.40;;;;;;5049994;28;20029;-81
2021/10/22 08:52:35;;;;;;;3.97;1.73;;;17.90;68.50;;;;;;5049778;28;20021;-81
2021/10/22 08:55:06;;;;;;;3.83;1.75;;;17.90;68.50;;;;;;5050076;28;20027;-81
2021/10/22 08:57:32;;;;;;;5.32;1.80;;;17.90;68.40;;;;;;5049574;28;20037;-81
2021/10/22 09:00:00;;;;;;;4.93;1.95;;;17.90;68.40;;;;;;5049895;28;20025;-81
2021/10/22 09:02:28;;;;;;;3.78;1.52;;;17.90;68.50;;;;;;5049672;28;20049;-82
2021/10/22 09:05:14;;;;;;;4.22;1.30;;;17.90;68.40;;;;;;5048782;28;20101;-81
2021/10/22 09:07:43;;;;;;;4.35;1.40;;;17.80;68.40;;;;;;5048216;28;20025;-81
2021/10/22 09:15:51;;;;;;;3.80;1.45;;;17.90;68.40;;;;;;5049712;28;20029;-81
2021/10/22 09:18:24;;;;;;;3.20;1.73;;;17.80;68.40;;;;;;5049895;28;20052;-81
2021/10/22 09:20:52;;;;;;;5.90;1.52;;;17.80;68.30;;;;;;5049675;28;20384;-81
2021/10/22 09:23:24;;;;;;;3.75;1.52;;;17.80;68.30;;;;;;5049828;28;20057;-81
2021/10/22 09:25:50;;;;;;;5.35;1.50;;;17.80;68.30;;;;;;5048204;28;20125;-81
2021/10/22 09:28:25;;;;;;;3.33;1.58;;;17.80;68.30;;;;;;5049778;28;20486;-81
2021/10/22 09:30:51;;;;;;;3.77;1.33;;;17.80;68.40;;;;;;5049495;28;20104;-81
2021/10/22 09:33:48;;;;;;;4.45;1.52;;;17.80;68.30;;;;;;5049654;28;20389;-81
2021/10/22 09:36:32;;;;;;;3.65;1.20;;;17.80;68.30;;;;;;5050216;28;20560;-81
2021/10/22 09:39:15;;;;;;;3.92;1.33;;;17.80;68.20;;;;;;5049371;28;20396;-81
2021/10/22 09:41:48;;;;;;;3.75;1.10;;;17.80;68.30;;;;;;5049098;28;20025;-81
2021/10/22 09:44:22;;;;;;;5.03;1.17;;;17.80;68.20;;;;;;5049681;28;20526;-81
2021/10/22 09:50:06;;;;;;;3.92;1.38;;;17.80;68.20;;;;;;5049387;28;20036;-81
2021/10/22 09:52:52;;;;;;;4.00;1.10;;;17.80;68.20;;;;;;5048315;28;20048;-81
2021/10/22 09:55:19;;;;;;;3.25;1.30;;;17.80;68.90;;;;;;5049149;28;20116;-81
2021/10/22 09:58:03;;;;;;;3.83;1.45;;;17.80;68.20;;;;;;5049191;28;20492;-81
2021/10/22 10:00:34;;;;;;;4.55;1.48;;;17.90;68.20;;;;;;5048738;28;20028;-81
2021/10/22 10:03:08;;;;;;;5.03;1.52;;;17.80;68.10;;;;;;5047450;28;20028;-81
2021/10/22 10:05:34;;;;;;;2.22;1.00;;;17.80;68.10;;;;;;5048704;28;20505;-81
2021/10/22 10:08:01;;;;;;;3.20;1.02;;;17.80;68.00;;;;;;5048859;28;20032;-81
2021/10/22 10:10:27;;;;;;;2.88;1.17;;;17.90;68.10;;;;;;5047139;28;20492;-81
2021/10/22 10:12:53;;;;;;;2.88;1.15;;;17.90;68.20;;;;;;5048748;28;20017;-81
2021/10/22 10:15:18;;;;;;;2.53;1.05;;;17.80;68.00;;;;;;5048558;28;20029;-81
2021/10/22 10:17:50;;;;;;;3.17;1.10;;;17.90;68.00;;;;;;5047680;28;20110;-81
2021/10/22 10:20:21;;;;;;;2.83;1.05;;;17.90;67.90;;;;;;5048920;28;20029;-81
2021/10/22 10:22:48;;;;;;;3.05;0.80;;;17.90;67.90;;;;;;5048935;28;20066;-81
2021/10/22 10:25:22;;;;;;;2.63;0.85;;;17.90;67.80;;;;;;5048985;28;20025;-81
2021/10/22 10:27:51;;;;;;;5.32;0.82;;;17.90;67.70;;;;;;5047372;28;20053;-81
2021/10/22 10:30:39;;;;;;;4.78;0.90;;;17.90;67.70;;;;;;5048786;28;20024;-81
2021/10/22 10:33:08;;;;;;;4.22;0.90;;;17.90;67.80;;;;;;5048432;28;20040;-82
2021/10/22 10:35:43;;;;;;;2.55;0.80;;;17.90;67.70;;;;;;5048239;28;20046;-81
2021/10/22 10:38:12;;;;;;;3.30;1.30;;;17.90;67.60;;;;;;5048466;28;20113;-81
2021/10/22 10:40:38;;;;;;;2.35;0.90;;;17.90;67.70;;;;;;5046825;28;20503;-82
2021/10/22 10:43:19;;;;;;;3.50;1.20;;;17.90;67.50;;;;;;5048387;28;20021;-81
2021/10/22 10:45:46;;;;;;;2.42;0.70;;;17.90;67.60;;;;;;5048548;28;20033;-82
2021/10/22 10:48:17;;;;;;;3.90;0.88;;;17.90;67.50;;;;;;5048359;28;20499;-81
2021/10/22 10:50:52;;;;;;;2.97;0.95;;;17.90;67.60;;;;;;5048314;28;20017;-81
2021/10/22 10:53:41;;;;;;;4.22;1.00;;;18.00;67.50;;;;;;5048282;28;20041;-83
2021/10/22 10:56:35;;;;;;;2.05;0.63;;;18.00;67.30;;;;;;5048223;28;20484;-81
2021/10/22 10:59:02;;;;;;;2.65;1.02;;;18.10;67.20;;;;;;5050204;28;20519;-81
2021/10/22 11:01:36;;;;;;;2.08;0.80;;;18.10;67.00;;;;;;5047922;28;20506;-81
2021/10/22 11:04:03;;;;;;;3.42;1.35;;;18.20;67.10;;;;;;5048218;28;20069;-81
2021/10/22 11:06:50;;;;;;;3.55;1.00;;;18.30;67.40;;;;;;5051378;28;20021;-81
2021/10/22 11:09:32;;;;;;;5.80;1.00;;;18.40;66.00;;;;;;5051931;28;20029;-81
2021/10/22 11:12:01;;;;;;;2.50;0.70;;;18.70;65.30;;;;;;5051718;28;20036;-81
2021/10/22 11:14:40;;;;;;;3.47;0.80;;;18.90;64.20;;;;;;5051263;28;20025;-81
2021/10/22 11:17:08;;;;;;;3.50;0.88;;;19.20;63.60;;;;;;5051399;28;20028;-81
2021/10/22 11:19:37;;;;;;;3.60;1.23;;;19.40;63.10;;;;;;5051228;28;20049;-81
2021/10/22 11:22:18;;;;;;;3.28;1.00;;;19.70;62.10;;;;;;5051446;28;20032;-81
2021/10/22 11:24:44;;;;;;;2.55;0.90;;;20.00;60.80;;;;;;5051699;28;20025;-82
2021/10/22 11:27:11;;;;;;;1.70;0.75;;;20.40;59.90;;;;;;5051307;28;20031;-81
2021/10/22 11:29:44;;;;;;;2.53;1.17;;;20.70;59.10;;;;;;5050984;28;20044;-81
2021/10/22 11:32:15;;;;;;;2.67;0.90;;;21.00;58.50;;;;;;5051264;28;20021;-81
2021/10/22 11:34:45;;;;;;;1.45;0.63;;;21.20;57.50;;;;;;5051019;28;20433;-81
2021/10/22 11:37:16;;;;;;;2.53;0.88;;;21.40;57.00;;;;;;5051280;28;20094;-81
2021/10/22 11:39:51;;;;;;;4.30;0.73;;;21.50;56.60;;;;;;5051077;28;20021;-81
2021/10/22 11:42:27;;;;;;;1.67;0.85;;;21.50;56.40;;;;;;5051431;28;20473;-82
2021/10/22 11:44:57;;;;;;;4.25;1.00;;;21.40;56.60;;;;;;5050953;28;20427;-81
2021/10/22 11:47:33;;;;;;;3.33;0.90;;;21.60;57.00;;;;;;5051010;28;20388;-81
2021/10/22 11:50:25;;;;;;;2.15;0.80;;;21.70;56.10;;;;;;5051115;28;20029;-82
2021/10/22 11:53:12;;;;;;;1.63;0.50;;;22.00;55.60;;;;;;5051046;28;20029;-81
2021/10/22 11:55:38;;;;;;;1.70;0.70;;;22.40;55.00;;;;;;5050765;28;20033;-82
2021/10/22 11:58:06;;;;;;;3.95;0.80;;;22.60;54.10;;;;;;5050705;28;20492;-81
2021/10/22 12:00:32;;;;;;;1.98;0.70;;;22.80;53.90;;;;;;5050629;28;20068;-81
2021/10/22 12:02:58;;;;;;;2.28;0.70;;;22.80;53.80;;;;;;5050710;28;20033;-81
2021/10/22 12:05:26;;;;;;;2.78;0.70;;;22.90;53.50;;;;;;5050555;28;20107;-81
2021/10/22 12:07:56;;;;;;;2.78;0.80;;;22.90;53.20;;;;;;5050845;28;20029;-81
2021/10/22 12:10:22;;;;;;;3.20;0.93;;;22.90;53.40;;;;;;5050523;28;20027;-80
2021/10/22 12:12:50;;;;;;;1.52;0.60;;;23.10;52.90;;;;;;5050890;28;20101;-81
2021/10/22 12:15:19;;;;;;;1.88;0.70;;;23.40;52.40;;;;;;5050940;28;20021;-81
2021/10/22 12:17:51;;;;;;;5.40;1.00;;;23.40;52.20;;;;;;5049783;28;20041;-81
2021/10/22 12:20:17;;;;;;;2.65;0.60;;;23.20;52.20;;;;;;5050947;28;20049;-81
2021/10/22 12:22:54;;;;;;;2.05;0.77;;;23.20;52.50;;;;;;5050202;28;20055;-81
2021/10/22 12:25:21;;;;;;;4.28;0.60;;;23.10;52.30;;;;;;5050275;28;20065;-81
2021/10/22 12:27:55;;;;;;;1.77;0.90;;;23.00;52.30;;;;;;5050604;28;20025;-82
2021/10/22 12:30:26;;;;;;;2.20;0.55;;;22.90;52.80;;;;;;5048858;28;20025;-81
2021/10/22 12:32:55;;;;;;;2.42;0.50;;;22.90;52.90;;;;;;5048983;28;20036;-81
2021/10/22 12:35:22;;;;;;;3.40;0.60;;;22.80;52.90;;;;;;5050105;28;20025;-80
2021/10/22 12:38:09;;;;;;;2.42;0.70;;;22.50;53.80;;;;;;5050565;28;20037;-81
2021/10/22 12:40:46;;;;;;;1.88;0.70;;;22.10;54.20;;;;;;5050029;28;20025;-81
2021/10/22 12:43:19;;;;;;;2.33;0.75;;;21.90;54.80;;;;;;5050225;28;20025;-80
2021/10/22 12:45:54;;;;;;;3.33;0.65;;;21.70;55.70;;;;;;5050280;28;20123;-80
2021/10/22 12:48:23;;;;;;;4.40;0.88;;;21.50;55.60;;;;;;5049930;28;20025;-81
2021/10/22 12:50:49;;;;;;;1.75;0.57;;;21.40;56.10;;;;;;5050207;28;20025;-81
2021/10/22 12:53:27;;;;;;;2.47;0.75;;;21.30;56.10;;;;;;5050385;28;20025;-81
2021/10/22 12:56:06;;;;;;;2.55;0.77;;;21.20;56.70;;;;;;5049978;28;20102;-80
2021/10/22 12:58:32;;;;;;;1.17;0.60;;;21.10;57.30;;;;;;5049578;28;20065;-80
2021/10/22 13:01:06;;;;;;;1.73;0.55;;;21.00;57.20;;;;;;5049865;28;20032;-80
2021/10/22 13:03:33;;;;;;;1.65;0.60;;;20.90;57.40;;;;;;5048629;28;20428;-81
2021/10/22 13:06:11;;;;;;;3.15;0.90;;;20.70;57.40;;;;;;5049907;28;20024;-81
2021/10/22 13:12:33;;;;;;;2.08;0.60;;;20.60;58.30;;;;;;5050131;28;20116;-81
2021/10/22 13:22:20;;;;;;;1.48;0.60;;;20.40;58.80;;;;;;5049525;28;20074;-80
2021/10/22 13:24:46;;;;;;;1.63;0.60;;;20.30;59.00;;;;;;5049911;28;20033;-80
2021/10/22 13:27:11;;;;;;;2.88;1.02;;;20.20;59.10;;;;;;5049305;28;20086;-80
2021/10/22 13:29:37;;;;;;;4.45;0.95;;;20.20;59.10;;;;;;5049249;28;20029;-81
2021/10/22 13:32:04;;;;;;;2.83;1.02;;;20.10;59.10;;;;;;5049518;28;20013;-80
2021/10/22 13:34:30;;;;;;;1.30;0.68;;;20.10;59.30;;;;;;5049210;28;20029;-81
2021/10/22 13:36:55;;;;;;;1.63;0.50;;;20.00;59.60;;;;;;5049370;28;20106;-80
2021/10/22 13:39:21;;;;;;;2.10;0.65;;;20.00;59.80;;;;;;5049113;28;20445;-80
2021/10/22 13:41:49;;;;;;;2.92;0.90;;;19.90;59.60;;;;;;5049595;28;20021;-81
2021/10/22 13:44:15;;;;;;;1.98;0.63;;;19.90;60.50;;;;;;5049602;28;20029;-81
2021/10/22 13:46:41;;;;;;;1.77;0.60;;;19.90;60.00;;;;;;5048808;28;20119;-80
2021/10/22 13:49:07;;;;;;;1.65;0.45;;;19.90;60.40;;;;;;5049027;28;20500;-80
2021/10/22 13:51:33;;;;;;;1.48;0.60;;;19.90;60.70;;;;;;5048850;28;20040;-80
2021/10/22 13:53:58;;;;;;;1.00;0.50;;;19.80;60.50;;;;;;5047724;28;20393;-80